createdAt,value
2019-05-28T00:02:00.341Z,51.10
2019-05-28T00:07:07.002Z,51.20
2019-05-28T00:12:13.324Z,51.10
2019-05-28T00:17:19.823Z,51.10
2019-05-28T00:22:26.311Z,51.20
2019-05-28T00:27:32.043Z,51.20
2019-05-28T00:32:38.084Z,51.10
2019-05-28T00:37:44.524Z,51.10
2019-05-28T00:42:50.743Z,51.20
2019-05-28T00:47:56.745Z,51.10
2019-05-28T00:53:02.933Z,51.20
2019-05-28T00:58:08.693Z,51.20
2019-05-28T01:03:15.002Z,51.20
2019-05-28T01:08:21.492Z,51.30
2019-05-28T01:13:27.732Z,51.20
2019-05-28T01:18:34.335Z,51.10
2019-05-28T01:23:40.643Z,51.20
2019-05-28T01:28:46.954Z,51.20
2019-05-28T01:33:53.512Z,51.30
2019-05-28T01:38:59.919Z,51.20
2019-05-28T01:44:05.578Z,51.20
2019-05-28T01:49:12.216Z,51.20
2019-05-28T01:54:18.168Z,51.80
2019-05-28T01:59:23.896Z,51.20
2019-05-28T02:04:29.173Z,51.20
2019-05-28T02:09:34.506Z,51.20
2019-05-28T02:14:39.983Z,51.20
2019-05-28T02:19:46.325Z,51.20
2019-05-28T02:24:52.876Z,51.50
2019-05-28T02:29:58.663Z,51.90
2019-05-28T02:35:05.657Z,51.30
2019-05-28T02:40:11.290Z,51.20
2019-05-28T02:45:17.486Z,51.30
2019-05-28T02:50:47.976Z,51.20
2019-05-28T02:55:55.188Z,51.30
2019-05-28T03:01:00.939Z,51.20
2019-05-28T03:06:07.705Z,51.90
2019-05-28T03:11:13.515Z,51.30
2019-05-28T03:16:19.236Z,51.20
2019-05-28T03:21:24.976Z,51.20
2019-05-28T03:26:30.845Z,51.10
2019-05-28T03:31:36.446Z,51.00
2019-05-28T03:36:42.245Z,51.00
2019-05-28T03:41:48.766Z,50.90
2019-05-28T03:46:55.268Z,51.00
2019-05-28T03:52:01.028Z,50.90
2019-05-28T03:57:06.976Z,50.90
2019-05-28T04:02:23.085Z,50.90
2019-05-28T04:07:21.308Z,50.90
2019-05-28T04:12:27.086Z,50.90
2019-05-28T04:17:32.826Z,50.90
2019-05-28T04:22:39.435Z,50.80
2019-05-28T04:27:45.166Z,50.90
2019-05-28T04:32:50.925Z,50.70
2019-05-28T04:37:57.506Z,50.90
2019-05-28T04:43:04.022Z,50.80
2019-05-28T04:48:09.976Z,50.70
2019-05-28T04:53:15.895Z,50.70
2019-05-28T04:58:21.926Z,50.70
2019-05-28T05:03:27.536Z,50.70
2019-05-28T05:08:33.415Z,50.70
2019-05-28T05:13:39.184Z,50.70
2019-05-28T05:18:45.096Z,50.70
2019-05-28T05:23:50.891Z,50.70
2019-05-28T05:28:56.745Z,50.70
2019-05-28T05:34:03.029Z,50.70
2019-05-28T05:39:09.505Z,51.30
2019-05-28T05:44:15.975Z,50.80
2019-05-28T05:49:22.127Z,51.40
2019-05-28T05:54:29.035Z,50.80
2019-05-28T05:59:35.368Z,50.80
2019-05-28T06:04:41.636Z,50.80
2019-05-28T06:09:48.266Z,50.80
2019-05-28T06:14:54.154Z,50.80
2019-05-28T06:20:00.370Z,50.90
2019-05-28T06:25:07.579Z,50.20
2019-05-28T06:30:12.908Z,50.40
2019-05-28T06:35:19.014Z,51.30
2019-05-28T06:40:25.176Z,50.90
2019-05-28T06:45:30.876Z,50.90
2019-05-28T06:50:37.506Z,50.90
2019-05-28T06:55:43.958Z,50.70
2019-05-28T07:00:49.746Z,50.50
2019-05-28T07:06:07.383Z,50.30
2019-05-28T07:11:05.525Z,50.50
2019-05-28T07:16:11.996Z,50.60
2019-05-28T07:21:17.767Z,50.50
2019-05-28T07:26:23.448Z,50.50
2019-05-28T07:31:29.196Z,50.60
2019-05-28T07:36:35.785Z,50.50
2019-05-28T07:41:41.585Z,50.60
2019-05-28T07:46:48.066Z,50.50
2019-05-28T07:51:54.285Z,50.50
2019-05-28T07:57:00.836Z,50.40
2019-05-28T08:02:06.605Z,50.50
2019-05-28T08:07:12.827Z,50.40
2019-05-28T08:12:18.617Z,50.40
2019-05-28T08:17:24.886Z,50.50
2019-05-28T08:22:41.878Z,50.60
2019-05-28T08:27:37.562Z,50.70
2019-05-28T08:32:43.964Z,50.70
2019-05-28T08:37:50.262Z,50.50
2019-05-28T08:42:57.618Z,50.70
2019-05-28T08:48:03.729Z,50.70
2019-05-28T08:53:10.295Z,50.60
2019-05-28T08:58:16.834Z,51.10
2019-05-28T09:03:22.898Z,50.60
2019-05-28T09:08:47.766Z,50.10
2019-05-28T09:13:54.517Z,50.30
2019-05-28T09:19:01.485Z,50.00
2019-05-28T09:24:08.176Z,50.10
2019-05-28T09:29:14.577Z,50.30
2019-05-28T09:34:20.067Z,50.30
2019-05-28T09:39:25.789Z,50.40
2019-05-28T09:44:32.242Z,50.40
2019-05-28T09:49:37.977Z,50.50
2019-05-28T09:54:44.616Z,50.60
2019-05-28T09:59:50.942Z,51.20
2019-05-28T10:04:57.836Z,51.50
2019-05-28T10:10:04.205Z,51.40
2019-05-28T10:15:09.874Z,51.50
2019-05-28T10:20:17.054Z,51.40
2019-05-28T10:25:22.726Z,51.30
2019-05-28T10:30:28.357Z,51.40
2019-05-28T10:35:35.046Z,51.40
2019-05-28T10:40:41.426Z,51.40
2019-05-28T10:45:47.577Z,51.30
2019-05-28T10:50:54.106Z,51.60
2019-05-28T10:56:00.716Z,51.40
2019-05-28T11:01:06.740Z,51.40
2019-05-28T11:06:12.444Z,51.40
2019-05-28T11:11:19.070Z,51.40
2019-05-28T11:16:25.736Z,51.50
2019-05-28T11:21:32.405Z,51.40
2019-05-28T11:26:38.114Z,51.50
2019-05-28T11:31:44.206Z,51.60
2019-05-28T11:36:49.961Z,51.10
2019-05-28T11:41:56.107Z,51.40
2019-05-28T11:47:02.446Z,51.50
2019-05-28T11:52:09.423Z,51.20
2019-05-28T11:57:16.266Z,51.40
2019-05-28T12:02:22.318Z,51.10
2019-05-28T12:07:28.806Z,51.10
2019-05-28T12:12:35.989Z,51.20
2019-05-28T12:17:45.112Z,51.20
2019-05-28T12:23:06.664Z,51.20
2019-05-28T12:27:58.036Z,51.20
2019-05-28T12:33:03.784Z,51.10
2019-05-28T12:38:10.143Z,51.10
2019-05-28T12:43:16.567Z,51.10
2019-05-28T12:48:22.996Z,51.20
2019-05-28T12:53:48.132Z,51.20
2019-05-28T12:58:42.162Z,51.10
2019-05-28T13:03:44.946Z,51.20
2019-05-28T13:08:50.575Z,51.10
2019-05-28T13:13:56.617Z,51.00
2019-05-28T13:19:02.796Z,51.00
2019-05-28T13:24:09.215Z,51.10
2019-05-28T13:29:15.445Z,51.10
2019-05-28T13:34:21.934Z,51.10
2019-05-28T13:39:28.307Z,50.90
2019-05-28T13:44:34.355Z,51.10
2019-05-28T13:49:40.765Z,50.90
2019-05-28T13:54:47.106Z,51.10
2019-05-28T13:59:58.601Z,51.00
2019-05-28T14:05:01.645Z,50.90
2019-05-28T14:10:08.235Z,50.90
2019-05-28T14:15:14.136Z,51.00
2019-05-28T14:20:21.717Z,50.90
2019-05-28T14:25:28.274Z,50.90
2019-05-28T14:30:34.496Z,50.90
2019-05-28T14:35:40.566Z,50.80
2019-05-28T14:40:46.852Z,51.00
2019-05-28T14:45:53.296Z,50.90
2019-05-28T14:51:00.446Z,50.90
2019-05-28T14:56:06.715Z,50.90
2019-05-28T15:01:13.125Z,51.00
2019-05-28T15:06:19.816Z,51.00
2019-05-28T15:11:26.505Z,50.80
2019-05-28T15:16:32.896Z,51.30
2019-05-28T15:21:38.888Z,50.90
2019-05-28T15:26:45.356Z,50.90
2019-05-28T15:31:51.496Z,50.80
2019-05-28T15:36:57.866Z,50.70
2019-05-28T15:42:04.066Z,50.70
2019-05-28T15:47:10.410Z,50.80
2019-05-28T15:52:16.845Z,50.90
2019-05-28T15:57:24.034Z,50.80
2019-05-28T16:02:30.147Z,50.80
2019-05-28T16:07:36.448Z,50.80
2019-05-28T16:12:42.236Z,50.80
2019-05-28T16:17:48.315Z,50.80
2019-05-28T16:22:54.243Z,50.80
2019-05-28T16:28:01.141Z,50.90
2019-05-28T16:33:07.595Z,50.70
2019-05-28T16:38:15.796Z,50.80
2019-05-28T16:43:21.915Z,50.90
2019-05-28T16:48:27.725Z,50.90
2019-05-28T16:53:34.133Z,50.90
2019-05-28T16:58:40.815Z,50.90
2019-05-28T17:03:46.877Z,50.90
2019-05-28T17:08:53.225Z,50.90
2019-05-28T17:14:00.306Z,50.80
2019-05-28T17:19:06.859Z,50.90
2019-05-28T17:24:12.832Z,50.90
2019-05-28T17:29:18.932Z,50.90
2019-05-28T17:34:24.707Z,50.80
2019-05-28T17:39:31.036Z,50.80
2019-05-28T17:44:36.802Z,50.90
2019-05-28T17:49:43.326Z,50.90
2019-05-28T17:54:49.655Z,50.80
2019-05-28T17:59:55.917Z,50.80
2019-05-28T18:05:02.531Z,51.20
2019-05-28T18:10:08.526Z,50.80
2019-05-28T18:15:14.346Z,50.80
2019-05-28T18:20:20.926Z,50.80
2019-05-28T18:25:28.123Z,50.70
2019-05-28T18:30:33.832Z,50.80
2019-05-28T18:35:40.303Z,50.70
2019-05-28T18:40:46.132Z,50.80
2019-05-28T18:45:52.336Z,50.70
2019-05-28T18:50:58.326Z,51.30
2019-05-28T18:56:16.456Z,50.70
2019-05-28T19:01:13.017Z,50.80
2019-05-28T19:06:19.405Z,50.90
2019-05-28T19:11:37.434Z,50.90
2019-05-28T19:16:32.455Z,51.00
2019-05-28T19:21:39.275Z,51.00
2019-05-28T19:26:44.977Z,51.00
2019-05-28T19:31:51.366Z,51.10
2019-05-28T19:36:57.586Z,50.90
2019-05-28T19:42:04.155Z,51.10
2019-05-28T19:47:10.745Z,51.00
2019-05-28T19:52:16.567Z,51.20
2019-05-28T19:57:26.641Z,51.20
2019-05-28T20:02:34.175Z,51.20
2019-05-28T20:07:40.425Z,51.30
2019-05-28T20:12:46.126Z,51.20
2019-05-28T20:17:54.574Z,51.30
2019-05-28T20:23:02.315Z,51.30
2019-05-28T20:28:10.094Z,51.30
2019-05-28T20:33:16.602Z,51.30
2019-05-28T20:38:23.008Z,51.30
2019-05-28T20:43:29.535Z,51.30
2019-05-28T20:48:36.154Z,51.20
2019-05-28T20:53:42.045Z,51.20
2019-05-28T20:58:49.579Z,51.30
2019-05-28T21:03:55.979Z,51.20
2019-05-28T21:09:02.334Z,51.20
2019-05-28T21:14:08.726Z,51.20
2019-05-28T21:19:14.580Z,51.10
2019-05-28T21:24:20.350Z,51.70
2019-05-28T21:29:26.704Z,51.10
2019-05-28T21:34:32.650Z,51.10
2019-05-28T21:39:38.588Z,51.00
2019-05-28T21:44:44.306Z,51.00
2019-05-28T21:49:50.177Z,51.00
2019-05-28T21:54:57.186Z,51.30
2019-05-28T22:00:04.162Z,51.50
2019-05-28T22:05:10.885Z,51.60
2019-05-28T22:10:17.826Z,51.60
2019-05-28T22:15:24.347Z,51.50
2019-05-28T22:20:31.135Z,51.30
2019-05-28T22:25:38.355Z,51.50
2019-05-28T22:30:44.367Z,52.10
2019-05-28T22:35:50.591Z,51.40
2019-05-28T22:40:58.283Z,51.30
2019-05-28T22:46:05.328Z,51.40
2019-05-28T22:51:11.685Z,51.30
2019-05-28T22:56:18.489Z,51.30
2019-05-28T23:01:25.037Z,51.80
2019-05-28T23:06:31.564Z,51.20
2019-05-28T23:11:37.947Z,51.20
2019-05-28T23:16:44.324Z,51.20
2019-05-28T23:21:50.935Z,51.20
2019-05-28T23:26:56.956Z,51.20
2019-05-28T23:32:03.976Z,51.70
2019-05-28T23:37:10.998Z,51.20
2019-05-28T23:42:17.795Z,51.10
2019-05-28T23:47:23.414Z,51.10
2019-05-28T23:52:29.534Z,51.00
2019-05-28T23:57:36.361Z,51.00
